Links Sitemap Venhuizerweer voor mobiel

AMSTERDAM SCHIPHOL:
Amsterdam Airport Schiphol, Netherlands (EHAM) 52-18N 004-46E -2M
Jul 28, 2021 - 03:55 PM EDT / 2021.07.28 1955 UTC
Wind: from the SW (220 degrees) at 23 MPH (20 KT):0
Visibility: greater than 7 mile(s):0
Sky conditions: mostly clear
Temperature: 64 F (18 C)
Dew Point: 51 F (11 C)
Relative Humidity: 63%
Pressure (altimeter): 29.74 in. Hg (1007 hPa)
ob: EHAM 281955Z 22020KT 9999 FEW033 18/11 Q1007 NOSIG
cycle: 20
DEELEN:
Deelen, Netherlands (EHDL) 52-04N 005-53E 52M
Jul 28, 2021 - 03:55 PM EDT / 2021.07.28 1955 UTC
Wind: from the S (190 degrees) at 7 MPH (6 KT) (direction variable):0
Visibility: greater than 7 mile(s):0
Sky conditions: partly cloudy
Temperature: 62 F (17 C)
Dew Point: 55 F (13 C)
Relative Humidity: 77%
Pressure (altimeter): 29.80 in. Hg (1009 hPa)
ob: EHDL 281955Z AUTO 19006KT 120V200 9999 FEW042 SCT048 17/13 Q1009 BLU
cycle: 20
DE KOOY:
De Kooy, Netherlands (EHKD) 52-55N 004-47E 14M
Jul 28, 2021 - 03:58 PM EDT / 2021.07.28 1958 UTC
Wind: from the SW (220 degrees) at 25 MPH (22 KT) gusting to 37 MPH (32 KT) (direction variable):0
Visibility: greater than 7 mile(s):0
Sky conditions: overcast
Temperature: 64 F (18 C)
Dew Point: 55 F (13 C)
Relative Humidity: 72%
Pressure (altimeter): 29.71 in. Hg (1006 hPa)
ob: EHKD 281958Z AUTO 22022G32KT 190V250 9999 FEW017 BKN096 OVC100 18/13 Q1006 BLU
cycle: 20
EELDE:
Groningen Airport Eelde, Netherlands (EHGG) 53-08N 006-35E 4M
Jul 28, 2021 - 03:55 PM EDT / 2021.07.28 1955 UTC
Wind: from the SSW (200 degrees) at 7 MPH (6 KT) (direction variable):0
Visibility: greater than 7 mile(s):0
Sky conditions: mostly clear
Temperature: 59 F (15 C)
Dew Point: 55 F (13 C)
Relative Humidity: 87%
Pressure (altimeter): 29.74 in. Hg (1007 hPa)
ob: EHGG 281955Z AUTO 20006KT 170V230 9999 FEW038 15/13 Q1007 NOSIG
cycle: 20
EINDHOVEN:
Eindhoven, Netherlands (EHEH) 51-27N 005-25E 28M
Jul 28, 2021 - 03:55 PM EDT / 2021.07.28 1955 UTC
Wind: from the SSW (200 degrees) at 10 MPH (9 KT):0
Visibility: greater than 7 mile(s):0
Sky conditions: overcast
Weather: heavy drizzle; Cumulonimbus clouds observed
Temperature: 62 F (17 C)
Dew Point: 53 F (12 C)
Relative Humidity: 72%
Pressure (altimeter): 29.83 in. Hg (1010 hPa)
ob: EHEH 281955Z AUTO 20009KT 9999 +DZ FEW023CB BKN046 BKN052 OVC061 17/12 Q1010 BLU TEMPO 22014G24KT 4500 SHRA SCT025CB BKN035
cycle: 20
GILZE-RIJEN:
Gilze-Rijen, Netherlands (EHGR) 51-34N 004-56E 24M
Jul 28, 2021 - 03:55 PM EDT / 2021.07.28 1955 UTC
Wind: from the SSW (200 degrees) at 13 MPH (11 KT) (direction variable):0
Visibility: greater than 7 mile(s):0
Sky conditions: overcast
Weather: drizzle, rain; Cumulonimbus clouds observed
Temperature: 62 F (17 C)
Dew Point: 53 F (12 C)
Relative Humidity: 72%
Pressure (altimeter): 29.80 in. Hg (1009 hPa)
ob: EHGR 281955Z AUTO 20011KT 150V230 9999 DZRA FEW019CB BKN075 OVC081 17/12 Q1009 BLU TEMPO SCT040CB
cycle: 20
LEEUWARDEN:
Leeuwarden, Netherlands (EHLW) 53-13N 005-46E 11M
Jul 28, 2021 - 03:55 PM EDT / 2021.07.28 1955 UTC
Wind: from the SW (220 degrees) at 15 MPH (13 KT) (direction variable):0
Visibility: greater than 7 mile(s):0
Sky conditions: partly cloudy
Temperature: 64 F (18 C)
Dew Point: 55 F (13 C)
Relative Humidity: 72%
Pressure (altimeter): 29.71 in. Hg (1006 hPa)
ob: EHLW 281955Z AUTO 22013KT 180V250 9999 SCT026 SCT029 18/13 Q1006 BLU
cycle: 20
MAASTRICHT:
Maastricht Airport Zuid Limburg, Netherlands (EHBK) 50-55N 005-47E 116M
Jul 28, 2021 - 03:55 PM EDT / 2021.07.28 1955 UTC
Wind: from the SW (220 degrees) at 12 MPH (10 KT):0
Visibility: greater than 7 mile(s):0
Temperature: 64 F (18 C)
Dew Point: 51 F (11 C)
Relative Humidity: 63%
Pressure (altimeter): 29.85 in. Hg (1011 hPa)
ob: EHBK 281955Z AUTO 22010KT 9999 NSC 18/11 Q1011 NOSIG
cycle: 20
ROTTERDAM ZESTIENHOVEN:
Rotterdam Airport Zestienhoven, Netherlands (EHRD) 51-57N 004-27E -4M
Jul 28, 2021 - 03:55 PM EDT / 2021.07.28 1955 UTC
Wind: from the SW (230 degrees) at 17 MPH (15 KT) (direction variable):0
Visibility: greater than 7 mile(s):0
Sky conditions: mostly clear
Temperature: 62 F (17 C)
Dew Point: 53 F (12 C)
Relative Humidity: 72%
Pressure (altimeter): 29.77 in. Hg (1008 hPa)
ob: EHRD 281955Z AUTO 23015KT 180V260 9999 FEW044 17/12 Q1008 NOSIG
cycle: 20
SOESTERBERG:
Soesterberg, Netherlands (EHSB) 52-08N 005-17E 25M
Nov 20, 2008 - 04:25 AM EST / 2008.11.20 0925 UTC
Wind: from the W (280 degrees) at 16 MPH (14 KT):0
Visibility: greater than 7 mile(s):0
Temperature: 51 F (11 C)
Dew Point: 48 F (9 C)
Relative Humidity: 87%
Pressure (altimeter): 29.83 in. Hg (1010 hPa)
ob: EHSB 200925Z AUTO 28014KT 9999 // 11/09 Q1010
cycle: 9
TWENTE:
Twenthe, Netherlands (EHTW) 52-16N 006-54E 57M
Apr 07, 2008 - 08:25 AM EDT / 2008.04.07 1225 UTC
Wind: from the N (010 degrees) at 7 MPH (6 KT):0
Sky conditions: mostly cloudy
Temperature: 46 F (8 C)
Dew Point: 24 F (-4 C)
Relative Humidity: 42%
Pressure (altimeter): 29.59 in. Hg (1002 hPa)
ob: EHTW 071225Z AUTO 01006KT //// // BKN200/// 08/M04 Q1002 RE//
cycle: 12
VALKENBURG:
Valkenburg, Netherlands (EHVB) 52-11N 004-25E 2M
Apr 01, 2010 - 03:55 AM EDT / 2010.04.01 0755 UTC
Wind: from the WSW (250 degrees) at 20 MPH (17 KT):0
Sky conditions: mostly cloudy
Temperature: 41 F (5 C)
Dew Point: 33 F (1 C)
Relative Humidity: 75%
Pressure (altimeter): 29.62 in. Hg (1003 hPa)
ob: EHVB 010755Z AUTO 25017KT 9999NDV FEW021/// BKN037/// 05/01 Q1003 BLU
cycle: 8
VLIELAND:
Vlieland, Netherlands (EHVL) 53-15N 004-55E 12M
Jul 28, 2021 - 03:55 PM EDT / 2021.07.28 1955 UTC
Wind: from the SW (220 degrees) at 31 MPH (27 KT):0
Visibility: greater than 7 mile(s):0
Sky conditions: partly cloudy
Temperature: 62 F (17 C)
Dew Point: 57 F (14 C)
Relative Humidity: 82%
Pressure (altimeter): 29.68 in. Hg (1005 hPa)
ob: EHVL 281955Z AUTO 22027KT 9999 FEW081 SCT100 17/14 Q1005 BLU
cycle: 20
VOLKEL:
Volkel, Netherlands (EHVK) 51-39N 005-42E 21M
Jul 28, 2021 - 03:55 PM EDT / 2021.07.28 1955 UTC
Wind: from the SSW (210 degrees) at 8 MPH (7 KT) (direction variable):0
Visibility: greater than 7 mile(s):0
Sky conditions: partly cloudy
Temperature: 62 F (17 C)
Dew Point: 51 F (11 C)
Relative Humidity: 67%
Pressure (altimeter): 29.83 in. Hg (1010 hPa)
ob: EHVK 281955Z AUTO 21007KT 180V240 9999 FEW092 SCT097 17/11 Q1010 BLU
cycle: 20
WOENSDRECHT:
Woensdrecht, Netherlands (EHWO) 51-27N 004-20E 17M
Jul 28, 2021 - 03:55 PM EDT / 2021.07.28 1955 UTC
Wind: from the SSW (210 degrees) at 6 MPH (5 KT) (direction variable):0
Visibility: greater than 7 mile(s):0
Sky conditions: mostly clear
Temperature: 62 F (17 C)
Dew Point: 55 F (13 C)
Relative Humidity: 77%
Pressure (altimeter): 29.80 in. Hg (1009 hPa)
ob: EHWO 281955Z AUTO 21005KT 170V240 9999 FEW043 17/13 Q1009 BLU
cycle: 20
Copyright © 2005 - 2021 Venhuizerweer - Alle Rechten Voorbehouden


3.235.60.144